Time;durP1;ratioP1;P1;durP2;ratioP2;P2;SDS_P1;SDS_P2;PMS_P1;PMS_P2;Temp;Humidity;BMP_temperature;BMP_pressure;BME280_temperature;BME280_humidity;BME280_pressure;Samples;Min_cycle;Max_cycle;Signal;HPM_P1;HPM_P2
2020/12/17 00:00:20;;;;;;;160.53;55.43;;;;;;;;;;4984504;28;20244;-78
2020/12/17 00:02:46;;;;;;;171.47;56.83;;;;;;;;;;4976714;28;20171;-77
2020/12/17 00:05:12;;;;;;;163.83;56.90;;;;;;;;;;4976332;28;20171;-78
2020/12/17 00:07:38;;;;;;;173.60;60.57;;;;;;;;;;4976616;28;20185;-82
2020/12/17 00:10:04;;;;;;;192.53;61.13;;;;;;;;;;4976451;28;20547;-78
2020/12/17 00:12:32;;;;;;;177.47;57.87;;;;;;;;;;4976835;28;20171;-78
2020/12/17 00:14:58;;;;;;;177.43;56.87;;;;;;;;;;4976468;28;20262;-78
2020/12/17 00:17:23;;;;;;;157.77;54.87;;;;;;;;;;4976429;28;20585;-78
2020/12/17 00:19:48;;;;;;;156.40;55.37;;;;;;;;;;4976164;28;20307;-78
2020/12/17 00:22:14;;;;;;;157.30;52.67;;;;;;;;;;4976110;28;20171;-78
2020/12/17 00:24:39;;;;;;;157.30;50.97;;;;;;;;;;4976324;28;20174;-80
2020/12/17 00:27:04;;;;;;;151.00;51.77;;;;;;;;;;4976049;28;20177;-78
2020/12/17 00:29:30;;;;;;;145.77;53.57;;;;;;;;;;4976210;28;20194;-77
2020/12/17 00:31:55;;;;;;;157.57;53.77;;;;;;;;;;4975813;28;20277;-78
2020/12/17 00:34:20;;;;;;;186.63;55.73;;;;;;;;;;4976252;28;20170;-77
2020/12/17 00:36:48;;;;;;;143.23;51.53;;;;;;;;;;4975795;28;20641;-78
2020/12/17 00:39:13;;;;;;;149.67;53.43;;;;;;;;;;4976188;28;20172;-78
2020/12/17 00:41:39;;;;;;;145.43;52.20;;;;;;;;;;4976310;28;20678;-78
2020/12/17 00:44:04;;;;;;;178.47;53.43;;;;;;;;;;4975974;28;20206;-77
2020/12/17 00:46:29;;;;;;;158.57;53.67;;;;;;;;;;4975800;28;20170;-78
2020/12/17 00:48:55;;;;;;;159.43;53.83;;;;;;;;;;4975534;28;20166;-78
2020/12/17 00:51:20;;;;;;;177.83;56.83;;;;;;;;;;4975530;28;20227;-78
2020/12/17 00:53:45;;;;;;;187.80;59.83;;;;;;;;;;4975652;28;20179;-78
2020/12/17 00:56:11;;;;;;;217.13;69.03;;;;;;;;;;4975867;28;20162;-82
2020/12/17 00:58:36;;;;;;;213.80;68.00;;;;;;;;;;4975652;28;20175;-78
2020/12/17 01:01:06;;;;;;;199.50;65.70;;;;;;;;;;4974822;28;20550;-78
2020/12/17 01:03:31;;;;;;;306.57;71.33;;;;;;;;;;4994715;28;20983;-78
2020/12/17 01:05:56;;;;;;;228.47;68.40;;;;;;;;;;4994811;28;20265;-78
2020/12/17 01:08:22;;;;;;;239.30;64.57;;;;;;;;;;4994674;28;20198;-78
2020/12/17 01:10:47;;;;;;;194.93;60.83;;;;;;;;;;4994435;28;20201;-78
2020/12/17 01:13:12;;;;;;;183.57;61.90;;;;;;;;;;4994847;28;20621;-80
2020/12/17 01:15:38;;;;;;;276.43;72.10;;;;;;;;;;4994824;28;20170;-77
2020/12/17 01:18:03;;;;;;;223.40;75.87;;;;;;;;;;4994693;28;20177;-78
2020/12/17 01:20:28;;;;;;;279.47;96.50;;;;;;;;;;4994595;28;20649;-78
2020/12/17 01:22:54;;;;;;;218.13;71.10;;;;;;;;;;4994402;28;20177;-78
2020/12/17 01:25:19;;;;;;;246.30;87.73;;;;;;;;;;4994503;28;20261;-78
2020/12/17 01:27:45;;;;;;;437.07;102.03;;;;;;;;;;4994231;28;20174;-78
2020/12/17 01:30:10;;;;;;;687.17;159.87;;;;;;;;;;4994842;28;20644;-78
2020/12/17 01:32:35;;;;;;;222.83;70.27;;;;;;;;;;4993884;28;20174;-78
2020/12/17 01:35:01;;;;;;;233.10;64.53;;;;;;;;;;4994411;28;20609;-78
2020/12/17 01:37:26;;;;;;;214.63;63.27;;;;;;;;;;4994328;28;20277;-78
2020/12/17 01:39:51;;;;;;;224.00;66.70;;;;;;;;;;4994259;28;20225;-78
2020/12/17 01:42:17;;;;;;;204.33;61.83;;;;;;;;;;4993905;28;20182;-78
2020/12/17 01:44:43;;;;;;;201.40;57.03;;;;;;;;;;4994558;28;20194;-77
2020/12/17 01:47:09;;;;;;;205.67;59.67;;;;;;;;;;4993827;28;20213;-77
2020/12/17 01:49:34;;;;;;;194.00;57.50;;;;;;;;;;4994172;28;20632;-77
2020/12/17 01:52:00;;;;;;;306.73;65.37;;;;;;;;;;4993822;28;20201;-78
2020/12/17 01:54:25;;;;;;;216.73;60.43;;;;;;;;;;4994035;28;20174;-78
2020/12/17 01:57:09;;;;;;;369.27;65.37;;;;;;;;;;4993646;28;20174;-77
2020/12/17 01:59:46;;;;;;;347.73;68.57;;;;;;;;;;4993530;28;20236;-77
2020/12/17 02:02:12;;;;;;;238.83;60.83;;;;;;;;;;4993730;28;20158;-78
2020/12/17 02:04:38;;;;;;;236.27;61.57;;;;;;;;;;4976004;28;20572;-77
2020/12/17 02:07:05;;;;;;;227.77;62.40;;;;;;;;;;4993541;28;20166;-77
2020/12/17 02:09:30;;;;;;;370.57;66.83;;;;;;;;;;4993758;28;20174;-77
2020/12/17 02:11:56;;;;;;;230.63;62.93;;;;;;;;;;4993326;28;20255;-77
2020/12/17 02:14:22;;;;;;;316.20;66.30;;;;;;;;;;4993425;28;20580;-77
2020/12/17 02:16:48;;;;;;;247.87;65.80;;;;;;;;;;4993481;28;20178;-82
2020/12/17 02:19:13;;;;;;;214.73;60.67;;;;;;;;;;4993859;28;20177;-77
2020/12/17 02:21:39;;;;;;;332.67;68.57;;;;;;;;;;4993512;28;20656;-78
2020/12/17 02:24:04;;;;;;;352.57;68.83;;;;;;;;;;4993552;28;20177;-77
2020/12/17 02:26:30;;;;;;;523.07;85.73;;;;;;;;;;4993481;28;20556;-78
2020/12/17 02:28:55;;;;;;;450.53;82.53;;;;;;;;;;4993539;28;20577;-78
2020/12/17 02:31:23;;;;;;;507.40;85.03;;;;;;;;;;4993294;28;20671;-78
2020/12/17 02:33:48;;;;;;;554.73;89.43;;;;;;;;;;4993751;28;20210;-77
2020/12/17 02:36:14;;;;;;;281.27;71.03;;;;;;;;;;4993316;28;20220;-77
2020/12/17 02:38:42;;;;;;;437.20;79.10;;;;;;;;;;4993052;28;20232;-78
2020/12/17 02:41:07;;;;;;;562.90;82.50;;;;;;;;;;4993058;28;20265;-77
2020/12/17 02:43:32;;;;;;;518.13;81.60;;;;;;;;;;4992977;28;20256;-77
2020/12/17 02:45:57;;;;;;;382.97;78.37;;;;;;;;;;4993269;28;20173;-78
2020/12/17 02:48:23;;;;;;;335.23;73.10;;;;;;;;;;5002268;28;20169;-77
2020/12/17 02:50:48;;;;;;;362.00;76.00;;;;;;;;;;5005324;28;20252;-77
2020/12/17 02:53:13;;;;;;;281.67;75.83;;;;;;;;;;5002078;28;20293;-77
2020/12/17 02:55:39;;;;;;;333.83;72.57;;;;;;;;;;4992966;28;20177;-78
2020/12/17 02:58:05;;;;;;;301.90;68.07;;;;;;;;;;4993245;28;20185;-78
2020/12/17 03:00:31;;;;;;;503.50;81.33;;;;;;;;;;4992976;28;20229;-78
2020/12/17 03:02:56;;;;;;;563.63;86.40;;;;;;;;;;4992796;28;20624;-78
2020/12/17 03:05:21;;;;;;;561.23;87.53;;;;;;;;;;4993319;28;20317;-81
2020/12/17 03:07:47;;;;;;;560.97;89.00;;;;;;;;;;4992983;28;20235;-77
2020/12/17 03:10:15;;;;;;;443.00;79.60;;;;;;;;;;4992935;28;20202;-78
2020/12/17 03:12:41;;;;;;;345.63;76.90;;;;;;;;;;4992651;28;20181;-78
2020/12/17 03:15:07;;;;;;;477.90;85.70;;;;;;;;;;4993631;28;20265;-78
2020/12/17 03:17:32;;;;;;;409.13;80.27;;;;;;;;;;4996640;28;20593;-77
2020/12/17 03:19:58;;;;;;;266.53;72.93;;;;;;;;;;4996540;28;20620;-78
2020/12/17 03:22:23;;;;;;;273.00;69.00;;;;;;;;;;4996690;28;20232;-81
2020/12/17 03:24:48;;;;;;;200.63;62.27;;;;;;;;;;4996694;28;20224;-78
2020/12/17 03:27:14;;;;;;;201.90;61.97;;;;;;;;;;4996760;28;20185;-78
2020/12/17 03:29:39;;;;;;;170.97;56.67;;;;;;;;;;4996703;28;20174;-78
2020/12/17 03:32:05;;;;;;;154.53;56.93;;;;;;;;;;4996562;28;20233;-77
2020/12/17 03:34:30;;;;;;;152.87;54.80;;;;;;;;;;4996644;28;20181;-78
2020/12/17 03:36:55;;;;;;;160.07;55.17;;;;;;;;;;4996261;28;20253;-78
2020/12/17 03:39:21;;;;;;;178.23;60.67;;;;;;;;;;4996773;28;20523;-77
2020/12/17 03:41:46;;;;;;;152.90;53.50;;;;;;;;;;4996499;28;20252;-77
2020/12/17 03:44:11;;;;;;;165.13;58.60;;;;;;;;;;4996049;28;20170;-77
2020/12/17 03:46:37;;;;;;;180.07;59.57;;;;;;;;;;4996147;28;20181;-78
2020/12/17 03:49:03;;;;;;;142.10;51.63;;;;;;;;;;4996136;28;20170;-78
2020/12/17 03:51:28;;;;;;;125.77;47.20;;;;;;;;;;4978786;28;20627;-77
2020/12/17 03:53:54;;;;;;;120.13;48.43;;;;;;;;;;4996318;28;20176;-77
2020/12/17 03:56:19;;;;;;;119.30;45.13;;;;;;;;;;4995981;28;20174;-78
2020/12/17 03:58:44;;;;;;;134.57;47.87;;;;;;;;;;4978634;28;20186;-77
2020/12/17 04:01:10;;;;;;;114.43;46.13;;;;;;;;;;4996391;28;20292;-78
2020/12/17 04:03:35;;;;;;;139.47;51.53;;;;;;;;;;4996252;28;20196;-78
2020/12/17 04:06:00;;;;;;;123.73;47.67;;;;;;;;;;4995699;28;20170;-78
2020/12/17 04:08:26;;;;;;;113.63;45.07;;;;;;;;;;4996329;28;20582;-78
2020/12/17 04:10:51;;;;;;;110.17;45.27;;;;;;;;;;4995652;28;20529;-78
2020/12/17 04:13:16;;;;;;;113.30;47.13;;;;;;;;;;4995998;28;20923;-77
2020/12/17 04:15:42;;;;;;;101.80;44.63;;;;;;;;;;4995568;28;20202;-78
2020/12/17 04:18:07;;;;;;;113.27;44.63;;;;;;;;;;4995945;28;20528;-77
2020/12/17 04:20:32;;;;;;;110.13;43.50;;;;;;;;;;4995600;28;20536;-78
2020/12/17 04:22:58;;;;;;;96.97;41.90;;;;;;;;;;4996022;28;20169;-77
2020/12/17 04:25:23;;;;;;;103.43;43.73;;;;;;;;;;4995406;28;20564;-77
2020/12/17 04:27:48;;;;;;;97.23;43.47;;;;;;;;;;4995337;28;20178;-77
2020/12/17 04:30:14;;;;;;;107.17;44.10;;;;;;;;;;4995339;28;20177;-77
2020/12/17 04:32:39;;;;;;;103.77;43.80;;;;;;;;;;4995390;28;20690;-77
2020/12/17 04:35:04;;;;;;;112.37;45.23;;;;;;;;;;4995385;28;20195;-78
2020/12/17 04:37:30;;;;;;;117.07;48.73;;;;;;;;;;4995247;28;20536;-79
2020/12/17 04:39:55;;;;;;;109.40;45.23;;;;;;;;;;4995700;28;20257;-77
2020/12/17 04:42:21;;;;;;;107.70;46.20;;;;;;;;;;4995684;28;20178;-78
2020/12/17 04:44:46;;;;;;;99.13;41.97;;;;;;;;;;4995450;28;20174;-78
2020/12/17 04:47:17;;;;;;;89.23;39.63;;;;;;;;;;4995038;28;20225;-78
2020/12/17 04:49:50;;;;;;;98.03;41.27;;;;;;;;;;4995127;28;20543;-77
2020/12/17 04:52:16;;;;;;;110.07;44.23;;;;;;;;;;4995106;28;20240;-77
2020/12/17 04:54:41;;;;;;;106.23;44.83;;;;;;;;;;4995473;28;20197;-77
2020/12/17 04:57:08;;;;;;;105.83;44.90;;;;;;;;;;4995151;28;20173;-78
2020/12/17 04:59:41;;;;;;;94.53;43.37;;;;;;;;;;4994673;28;20234;-77
2020/12/17 05:02:07;;;;;;;112.20;51.73;;;;;;;;;;4995086;28;20178;-77
2020/12/17 05:04:42;;;;;;;125.87;56.67;;;;;;;;;;4994952;28;20176;-79
2020/12/17 05:07:18;;;;;;;121.80;60.13;;;;;;;;;;4994731;28;20173;-77
2020/12/17 05:09:44;;;;;;;108.40;51.03;;;;;;;;;;4994718;28;20169;-77
2020/12/17 05:12:10;;;;;;;145.30;66.67;;;;;;;;;;4994764;28;20285;-77
2020/12/17 05:14:36;;;;;;;113.37;49.30;;;;;;;;;;4994514;28;20261;-77
2020/12/17 05:17:01;;;;;;;99.57;42.17;;;;;;;;;;4994811;28;20652;-77
2020/12/17 05:19:27;;;;;;;109.13;44.77;;;;;;;;;;4994696;28;20515;-77
2020/12/17 05:21:56;;;;;;;109.53;45.17;;;;;;;;;;4994948;28;20304;-77
2020/12/17 05:24:22;;;;;;;102.73;42.30;;;;;;;;;;4994313;28;20165;-77
2020/12/17 05:26:51;;;;;;;113.40;45.07;;;;;;;;;;4976985;28;20189;-77
2020/12/17 05:29:17;;;;;;;90.33;40.60;;;;;;;;;;4994558;28;20173;-77
2020/12/17 05:31:43;;;;;;;103.97;43.50;;;;;;;;;;4994181;28;20553;-77
2020/12/17 05:34:08;;;;;;;91.97;39.83;;;;;;;;;;4994248;28;20188;-77
2020/12/17 05:36:34;;;;;;;99.67;41.10;;;;;;;;;;4994401;28;20265;-77
2020/12/17 05:39:05;;;;;;;105.50;42.67;;;;;;;;;;4993420;28;20677;-77
2020/12/17 05:41:31;;;;;;;110.27;44.90;;;;;;;;;;4994607;28;20181;-77
2020/12/17 05:44:06;;;;;;;225.43;85.57;;;;;;;;;;4993930;28;20184;-77
2020/12/17 05:46:36;;;;;;;140.83;57.43;;;;;;;;;;4994245;28;20604;-77
2020/12/17 05:49:08;;;;;;;111.93;44.60;;;;;;;;;;4994376;28;20174;-77
2020/12/17 05:51:33;;;;;;;102.33;40.73;;;;;;;;;;4994316;28;20197;-77
2020/12/17 05:53:59;;;;;;;105.07;42.30;;;;;;;;;;4993980;28;20261;-77
2020/12/17 05:56:26;;;;;;;104.60;44.60;;;;;;;;;;4994008;28;20177;-77
2020/12/17 05:58:51;;;;;;;114.20;48.60;;;;;;;;;;4993876;28;20224;-77
2020/12/17 06:01:17;;;;;;;119.60;48.57;;;;;;;;;;4993467;28;20225;-78
2020/12/17 06:03:43;;;;;;;106.10;43.97;;;;;;;;;;4993959;28;20206;-78
2020/12/17 06:06:08;;;;;;;219.37;87.70;;;;;;;;;;4994165;28;20185;-78
2020/12/17 06:08:35;;;;;;;119.23;54.13;;;;;;;;;;4994125;28;20170;-78
2020/12/17 06:11:07;;;;;;;90.57;39.33;;;;;;;;;;4993676;28;20299;-78
2020/12/17 06:13:38;;;;;;;91.13;38.43;;;;;;;;;;4993877;28;20174;-77
2020/12/17 06:16:04;;;;;;;91.50;38.10;;;;;;;;;;4994104;28;20596;-77
2020/12/17 06:18:50;;;;;;;82.73;36.23;;;;;;;;;;4993622;28;20177;-77
2020/12/17 06:21:16;;;;;;;89.20;40.33;;;;;;;;;;4986040;28;20197;-77
2020/12/17 06:23:41;;;;;;;98.13;45.97;;;;;;;;;;4993556;28;20166;-77
2020/12/17 06:26:08;;;;;;;178.30;79.57;;;;;;;;;;4993754;28;20180;-77
2020/12/17 06:28:36;;;;;;;84.23;40.23;;;;;;;;;;4993400;28;20673;-77
2020/12/17 06:31:02;;;;;;;88.80;39.73;;;;;;;;;;4993129;28;20201;-77
2020/12/17 06:33:28;;;;;;;81.60;35.90;;;;;;;;;;4993448;28;20186;-77
2020/12/17 06:35:57;;;;;;;79.33;38.30;;;;;;;;;;4993442;28;20182;-77
2020/12/17 06:38:24;;;;;;;82.17;41.00;;;;;;;;;;4975947;28;20205;-78
2020/12/17 06:40:49;;;;;;;80.43;39.33;;;;;;;;;;4992957;28;20236;-77
2020/12/17 06:43:31;;;;;;;361.03;151.27;;;;;;;;;;4993116;28;20564;-77
2020/12/17 06:45:57;;;;;;;169.03;75.27;;;;;;;;;;4993307;28;20248;-77
2020/12/17 06:48:31;;;;;;;105.97;48.33;;;;;;;;;;4993516;28;20613;-77
2020/12/17 06:50:57;;;;;;;83.80;38.17;;;;;;;;;;4993016;28;20197;-77
2020/12/17 06:53:39;;;;;;;83.10;38.40;;;;;;;;;;4992482;28;20647;-77
2020/12/17 06:56:04;;;;;;;83.53;37.10;;;;;;;;;;4994050;28;20269;-77
2020/12/17 06:58:30;;;;;;;91.23;42.20;;;;;;;;;;4993958;28;20292;-79
2020/12/17 07:00:56;;;;;;;96.43;42.03;;;;;;;;;;4976719;28;20299;-78
2020/12/17 07:03:48;;;;;;;90.67;41.00;;;;;;;;;;4993987;28;20173;-78
2020/12/17 07:06:16;;;;;;;106.53;48.57;;;;;;;;;;4991259;28;20189;-78
2020/12/17 07:08:42;;;;;;;93.03;39.80;;;;;;;;;;4994176;28;20233;-78
2020/12/17 07:11:27;;;;;;;89.27;39.93;;;;;;;;;;4993229;28;20198;-78
2020/12/17 07:13:54;;;;;;;95.17;40.77;;;;;;;;;;4994902;28;20178;-78
2020/12/17 07:16:19;;;;;;;93.03;39.47;;;;;;;;;;4993915;28;20213;-78
2020/12/17 07:18:44;;;;;;;85.40;35.77;;;;;;;;;;4994460;28;20224;-78
2020/12/17 07:21:10;;;;;;;103.37;43.87;;;;;;;;;;4993933;28;20174;-78
2020/12/17 07:23:40;;;;;;;127.17;53.47;;;;;;;;;;4994732;28;20178;-78
2020/12/17 07:26:23;;;;;;;119.67;47.80;;;;;;;;;;4992496;28;20236;-78
2020/12/17 07:28:52;;;;;;;89.60;39.47;;;;;;;;;;4993787;28;20265;-78
2020/12/17 07:31:24;;;;;;;95.97;39.43;;;;;;;;;;4994319;28;20197;-78
2020/12/17 07:33:53;;;;;;;95.23;40.90;;;;;;;;;;4994115;28;20600;-78
2020/12/17 07:36:18;;;;;;;96.67;40.47;;;;;;;;;;4993766;28;20181;-78
2020/12/17 07:38:44;;;;;;;91.07;40.53;;;;;;;;;;4994600;28;20170;-78
2020/12/17 07:41:22;;;;;;;127.87;57.30;;;;;;;;;;4994322;28;20654;-78
2020/12/17 07:43:48;;;;;;;136.00;61.40;;;;;;;;;;4993674;28;20201;-78
2020/12/17 07:46:13;;;;;;;95.70;44.23;;;;;;;;;;4994001;28;20641;-78
2020/12/17 07:48:42;;;;;;;88.10;40.63;;;;;;;;;;4995854;28;20604;-78
2020/12/17 07:51:14;;;;;;;91.20;41.03;;;;;;;;;;5002321;28;20259;-78
2020/12/17 07:53:40;;;;;;;85.17;40.17;;;;;;;;;;4993908;28;20173;-78
2020/12/17 07:56:09;;;;;;;82.43;39.90;;;;;;;;;;4993461;28;20182;-79
2020/12/17 07:58:35;;;;;;;82.87;40.73;;;;;;;;;;4993409;28;20182;-78
2020/12/17 08:01:01;;;;;;;96.83;46.53;;;;;;;;;;4994180;28;20563;-78
2020/12/17 08:03:27;;;;;;;97.10;46.53;;;;;;;;;;4997307;28;20269;-78
2020/12/17 08:06:02;;;;;;;85.77;40.47;;;;;;;;;;4997285;28;20173;-78
2020/12/17 08:08:28;;;;;;;92.13;42.53;;;;;;;;;;4997315;28;20518;-78
2020/12/17 08:10:53;;;;;;;89.27;41.83;;;;;;;;;;4997133;28;20201;-78
2020/12/17 08:13:19;;;;;;;102.00;46.53;;;;;;;;;;4997691;28;20225;-78
2020/12/17 08:15:51;;;;;;;98.97;46.60;;;;;;;;;;4996871;28;20193;-77
2020/12/17 08:18:21;;;;;;;112.77;52.20;;;;;;;;;;4997700;28;20158;-77
2020/12/17 08:20:46;;;;;;;114.87;55.77;;;;;;;;;;4997390;28;20524;-77
2020/12/17 08:23:18;;;;;;;93.23;42.67;;;;;;;;;;4996728;28;20168;-77
2020/12/17 08:25:44;;;;;;;108.13;47.23;;;;;;;;;;4997051;28;20170;-77
2020/12/17 08:28:10;;;;;;;120.20;56.40;;;;;;;;;;4997200;28;20174;-77
2020/12/17 08:30:35;;;;;;;100.07;45.37;;;;;;;;;;4996786;28;20201;-77
2020/12/17 08:33:01;;;;;;;106.50;47.77;;;;;;;;;;4996613;28;20510;-77
2020/12/17 08:35:26;;;;;;;115.30;47.40;;;;;;;;;;4997345;28;20189;-77
2020/12/17 08:37:53;;;;;;;109.37;47.70;;;;;;;;;;4996771;28;20354;-77
2020/12/17 08:40:28;;;;;;;120.60;49.60;;;;;;;;;;4996663;28;20240;-77
2020/12/17 08:43:00;;;;;;;114.93;48.37;;;;;;;;;;4996612;28;20174;-77
2020/12/17 08:45:26;;;;;;;111.90;50.13;;;;;;;;;;4996391;28;20274;-77
2020/12/17 08:47:55;;;;;;;113.33;52.37;;;;;;;;;;4997084;28;20228;-77
2020/12/17 08:50:21;;;;;;;119.73;52.93;;;;;;;;;;4996111;28;20201;-77
2020/12/17 08:52:49;;;;;;;128.80;53.90;;;;;;;;;;4995993;28;20182;-78
2020/12/17 08:55:14;;;;;;;106.07;48.60;;;;;;;;;;4995261;28;20186;-78
2020/12/17 08:57:39;;;;;;;109.53;51.30;;;;;;;;;;4995751;28;20236;-78
2020/12/17 09:00:13;;;;;;;107.23;49.60;;;;;;;;;;4996511;28;20668;-77
2020/12/17 09:02:39;;;;;;;98.27;45.87;;;;;;;;;;4996511;28;20169;-78
2020/12/17 09:05:04;;;;;;;104.33;47.27;;;;;;;;;;4995246;28;20264;-78
2020/12/17 09:07:31;;;;;;;95.87;47.17;;;;;;;;;;4994737;28;20269;-78
2020/12/17 09:10:09;;;;;;;103.20;45.67;;;;;;;;;;4995129;28;20225;-78
2020/12/17 09:12:35;;;;;;;109.10;52.77;;;;;;;;;;4994992;28;20651;-77
2020/12/17 09:15:07;;;;;;;100.07;49.03;;;;;;;;;;4995462;28;20181;-78
2020/12/17 09:17:33;;;;;;;97.73;48.03;;;;;;;;;;4996684;28;20178;-78
2020/12/17 09:19:58;;;;;;;98.47;46.73;;;;;;;;;;4996156;28;20166;-78
2020/12/17 09:22:30;;;;;;;98.50;49.10;;;;;;;;;;4995568;28;20204;-78
2020/12/17 09:24:55;;;;;;;83.97;44.07;;;;;;;;;;4995841;28;20215;-78
2020/12/17 09:27:21;;;;;;;100.97;49.33;;;;;;;;;;4993997;28;20174;-77
2020/12/17 09:30:05;;;;;;;90.80;47.40;;;;;;;;;;4994397;28;20185;-79
2020/12/17 09:32:31;;;;;;;87.00;45.13;;;;;;;;;;4994974;28;20231;-78
2020/12/17 09:35:02;;;;;;;98.60;52.30;;;;;;;;;;4995368;28;20261;-78
2020/12/17 09:37:28;;;;;;;107.43;52.03;;;;;;;;;;4995594;28;20177;-78
2020/12/17 09:39:53;;;;;;;77.27;43.00;;;;;;;;;;4980134;28;20182;-78
2020/12/17 09:42:18;;;;;;;107.90;54.57;;;;;;;;;;4996024;28;20304;-78
2020/12/17 09:44:44;;;;;;;107.13;52.70;;;;;;;;;;4995445;28;20178;-79
2020/12/17 09:47:09;;;;;;;142.73;71.90;;;;;;;;;;4995397;28;20181;-78
2020/12/17 09:49:36;;;;;;;111.70;57.87;;;;;;;;;;4995077;28;20178;-78
2020/12/17 09:52:03;;;;;;;96.90;50.93;;;;;;;;;;4994946;28;20209;-79
2020/12/17 09:54:28;;;;;;;105.03;50.53;;;;;;;;;;4995795;28;20174;-79
2020/12/17 09:57:06;;;;;;;85.53;45.67;;;;;;;;;;4995768;28;20224;-78
2020/12/17 09:59:31;;;;;;;108.83;55.03;;;;;;;;;;4994777;28;20559;-79
2020/12/17 10:01:57;;;;;;;107.13;52.83;;;;;;;;;;4994640;28;20205;-79
2020/12/17 10:04:22;;;;;;;98.27;49.90;;;;;;;;;;4994103;28;20170;-78
2020/12/17 10:06:48;;;;;;;102.73;51.43;;;;;;;;;;4994272;28;20523;-79
2020/12/17 10:09:13;;;;;;;102.00;51.30;;;;;;;;;;4994378;28;20236;-79
2020/12/17 10:11:45;;;;;;;102.37;47.57;;;;;;;;;;4994155;28;20201;-79
2020/12/17 10:14:10;;;;;;;132.97;65.20;;;;;;;;;;4996781;28;20185;-78
2020/12/17 10:16:35;;;;;;;124.40;59.20;;;;;;;;;;4994865;28;20232;-78
2020/12/17 10:19:01;;;;;;;101.07;51.60;;;;;;;;;;4994832;28;20197;-78
2020/12/17 10:21:26;;;;;;;163.57;83.33;;;;;;;;;;4994842;28;20177;-78
2020/12/17 10:23:51;;;;;;;113.90;58.67;;;;;;;;;;4994862;28;20176;-78
2020/12/17 10:26:16;;;;;;;144.23;74.30;;;;;;;;;;4994785;28;20184;-78
2020/12/17 10:28:42;;;;;;;137.63;70.37;;;;;;;;;;4994688;28;20180;-78
2020/12/17 10:31:08;;;;;;;93.90;50.97;;;;;;;;;;4994990;28;20235;-78
2020/12/17 10:33:33;;;;;;;129.80;66.57;;;;;;;;;;4994902;28;20174;-78
2020/12/17 10:35:58;;;;;;;105.87;53.27;;;;;;;;;;4994608;28;20178;-78
2020/12/17 10:38:23;;;;;;;88.73;50.57;;;;;;;;;;4994310;28;20174;-78
2020/12/17 10:40:49;;;;;;;89.90;46.93;;;;;;;;;;4993258;28;20628;-78
2020/12/17 10:43:14;;;;;;;104.00;56.00;;;;;;;;;;4994032;28;20633;-78
2020/12/17 10:45:39;;;;;;;90.20;48.07;;;;;;;;;;4993971;28;20178;-78
2020/12/17 10:48:05;;;;;;;99.97;52.50;;;;;;;;;;4974320;28;20210;-78
2020/12/17 10:50:31;;;;;;;106.23;56.17;;;;;;;;;;4989810;28;20523;-78
2020/12/17 10:52:56;;;;;;;106.73;55.33;;;;;;;;;;4994089;28;20223;-77
2020/12/17 10:55:21;;;;;;;88.77;48.20;;;;;;;;;;4994167;28;20185;-78
2020/12/17 10:57:49;;;;;;;110.53;59.57;;;;;;;;;;4993457;28;20178;-77
2020/12/17 11:00:15;;;;;;;97.50;50.23;;;;;;;;;;4994216;28;20236;-77
2020/12/17 11:02:40;;;;;;;106.30;61.03;;;;;;;;;;4994313;28;20169;-78
2020/12/17 11:05:05;;;;;;;114.07;55.83;;;;;;;;;;4990007;28;20174;-78
2020/12/17 11:07:31;;;;;;;113.60;61.80;;;;;;;;;;4990033;28;20178;-78
2020/12/17 11:09:56;;;;;;;115.47;61.77;;;;;;;;;;4990494;28;20169;-78
2020/12/17 11:12:21;;;;;;;84.60;46.37;;;;;;;;;;4980002;28;20287;-78
2020/12/17 11:14:47;;;;;;;95.90;51.33;;;;;;;;;;4993388;28;20178;-78
2020/12/17 11:17:12;;;;;;;96.60;52.30;;;;;;;;;;4988986;28;20642;-78
2020/12/17 11:19:38;;;;;;;108.73;61.63;;;;;;;;;;4989069;28;20200;-78
2020/12/17 11:22:03;;;;;;;106.57;54.80;;;;;;;;;;4994134;28;20608;-78
2020/12/17 11:24:29;;;;;;;115.37;63.03;;;;;;;;;;4994561;28;20199;-78
2020/12/17 11:26:54;;;;;;;113.93;62.50;;;;;;;;;;4992400;28;20216;-78
2020/12/17 11:29:20;;;;;;;91.60;50.33;;;;;;;;;;4990963;28;20180;-78
2020/12/17 11:31:46;;;;;;;98.13;54.20;;;;;;;;;;4993997;28;20197;-78
2020/12/17 11:34:11;;;;;;;97.40;52.13;;;;;;;;;;4994007;28;20174;-78
2020/12/17 11:36:36;;;;;;;86.73;47.97;;;;;;;;;;4993160;28;20222;-81
2020/12/17 11:39:02;;;;;;;99.27;53.03;;;;;;;;;;4993134;28;20186;-78
2020/12/17 11:41:27;;;;;;;93.77;49.53;;;;;;;;;;4993370;28;20178;-78
2020/12/17 11:43:53;;;;;;;103.40;54.23;;;;;;;;;;4995117;28;20551;-78
2020/12/17 11:46:19;;;;;;;116.63;61.47;;;;;;;;;;4996750;28;20178;-78
2020/12/17 11:48:45;;;;;;;101.53;52.20;;;;;;;;;;5000498;28;20184;-79
2020/12/17 11:51:12;;;;;;;127.77;70.23;;;;;;;;;;4975864;28;20202;-79
2020/12/17 11:53:37;;;;;;;102.13;51.87;;;;;;;;;;4977658;28;20244;-79
2020/12/17 11:56:03;;;;;;;106.40;54.80;;;;;;;;;;4976533;28;20181;-78
2020/12/17 11:58:28;;;;;;;96.63;52.63;;;;;;;;;;4998054;28;20178;-78
2020/12/17 12:00:53;;;;;;;113.00;58.23;;;;;;;;;;4996827;28;20240;-79
2020/12/17 12:03:19;;;;;;;110.13;56.37;;;;;;;;;;4992297;28;20181;-80
2020/12/17 12:05:44;;;;;;;99.43;50.03;;;;;;;;;;4993209;28;21477;-79
2020/12/17 12:08:09;;;;;;;92.00;48.17;;;;;;;;;;4975443;28;20200;-79
2020/12/17 12:10:35;;;;;;;101.53;54.13;;;;;;;;;;4995038;28;20684;-79
2020/12/17 12:13:00;;;;;;;100.47;51.50;;;;;;;;;;4995981;28;20177;-78
2020/12/17 12:15:26;;;;;;;113.50;56.13;;;;;;;;;;4991827;28;20185;-78
2020/12/17 12:17:52;;;;;;;138.63;63.90;;;;;;;;;;4991601;28;20205;-78
2020/12/17 12:20:18;;;;;;;114.03;58.33;;;;;;;;;;4995684;28;20184;-78
2020/12/17 12:22:45;;;;;;;93.80;49.83;;;;;;;;;;4994067;28;20264;-79
2020/12/17 12:25:10;;;;;;;92.40;50.37;;;;;;;;;;4975094;28;20178;-79
2020/12/17 12:27:35;;;;;;;87.07;49.53;;;;;;;;;;4990856;28;20502;-78
2020/12/17 12:30:01;;;;;;;125.37;66.40;;;;;;;;;;4995217;28;20192;-78
2020/12/17 12:32:26;;;;;;;143.53;73.23;;;;;;;;;;4994809;28;20208;-78
2020/12/17 12:34:51;;;;;;;110.67;59.83;;;;;;;;;;4992011;28;20182;-78
2020/12/17 12:37:17;;;;;;;120.23;64.87;;;;;;;;;;4972896;28;20209;-79
2020/12/17 12:39:42;;;;;;;85.07;48.03;;;;;;;;;;4992738;28;20182;-79
2020/12/17 12:42:08;;;;;;;124.30;65.77;;;;;;;;;;4989455;28;20280;-79
2020/12/17 12:44:33;;;;;;;110.33;59.07;;;;;;;;;;4990200;28;20197;-79
2020/12/17 12:46:58;;;;;;;93.53;53.97;;;;;;;;;;4973155;28;20264;-78
2020/12/17 12:49:24;;;;;;;101.27;54.07;;;;;;;;;;4990771;28;20654;-78
2020/12/17 12:51:49;;;;;;;101.03;54.53;;;;;;;;;;4991758;28;20214;-79
2020/12/17 12:54:14;;;;;;;89.67;51.80;;;;;;;;;;4993673;28;20653;-78
2020/12/17 12:56:40;;;;;;;101.13;56.33;;;;;;;;;;4994660;28;20185;-78
2020/12/17 12:59:06;;;;;;;90.50;53.03;;;;;;;;;;4991741;28;20259;-79
2020/12/17 13:01:35;;;;;;;98.30;55.47;;;;;;;;;;4978407;28;20280;-78
2020/12/17 13:04:01;;;;;;;99.00;53.10;;;;;;;;;;4996363;28;20181;-78
2020/12/17 13:06:26;;;;;;;104.17;54.40;;;;;;;;;;4996735;28;20169;-78
2020/12/17 13:08:51;;;;;;;95.40;52.20;;;;;;;;;;4996200;28;20712;-79
2020/12/17 13:11:18;;;;;;;100.47;57.90;;;;;;;;;;4993777;28;20217;-78
2020/12/17 13:13:43;;;;;;;107.57;61.53;;;;;;;;;;4991769;28;20433;-79
2020/12/17 13:16:09;;;;;;;100.77;56.53;;;;;;;;;;4975267;28;20185;-78
2020/12/17 13:18:34;;;;;;;111.80;59.80;;;;;;;;;;4991436;28;20248;-78
2020/12/17 13:20:59;;;;;;;114.23;66.07;;;;;;;;;;4975414;28;20510;-78
2020/12/17 13:23:28;;;;;;;126.53;68.10;;;;;;;;;;4992411;28;20181;-78
2020/12/17 13:25:53;;;;;;;119.03;64.93;;;;;;;;;;4993802;28;20185;-80
2020/12/17 13:28:18;;;;;;;126.33;65.40;;;;;;;;;;4993832;28;20686;-78
2020/12/17 13:30:46;;;;;;;107.47;60.50;;;;;;;;;;4994674;28;20698;-78
2020/12/17 13:33:11;;;;;;;111.47;60.47;;;;;;;;;;4994277;28;20718;-78
2020/12/17 13:35:37;;;;;;;106.40;59.43;;;;;;;;;;4993979;28;20181;-77
2020/12/17 13:38:03;;;;;;;109.00;60.30;;;;;;;;;;4994373;28;20181;-78
2020/12/17 13:40:28;;;;;;;110.77;61.23;;;;;;;;;;4992772;28;20667;-78
2020/12/17 13:42:53;;;;;;;103.03;56.93;;;;;;;;;;4992138;28;20546;-78
2020/12/17 13:45:19;;;;;;;114.57;60.07;;;;;;;;;;4995763;28;20205;-78
2020/12/17 13:47:44;;;;;;;116.33;63.70;;;;;;;;;;4996008;28;20257;-78
2020/12/17 13:50:11;;;;;;;106.97;58.03;;;;;;;;;;4994967;28;20177;-78
2020/12/17 13:52:36;;;;;;;98.63;54.57;;;;;;;;;;4994082;28;20703;-78
2020/12/17 13:55:02;;;;;;;94.37;51.57;;;;;;;;;;4995109;28;20201;-77
2020/12/17 13:57:27;;;;;;;93.80;50.10;;;;;;;;;;4992343;28;20652;-78
2020/12/17 13:59:52;;;;;;;89.63;49.50;;;;;;;;;;4989243;28;20244;-78
2020/12/17 14:02:18;;;;;;;93.47;51.83;;;;;;;;;;4991001;28;20184;-78
2020/12/17 14:04:43;;;;;;;92.80;50.17;;;;;;;;;;4992071;28;20185;-81